sensor_id;sensor_type;location;lat;lon;timestamp;P1;durP1;ratioP1;P2;durP2;ratioP2
12593;SDS011;6362;50.208;9.182;2022-11-20T00:01:46;40.00;;;18.00;;
12593;SDS011;6362;50.208;9.182;2022-11-20T00:04:12;38.92;;;17.40;;
12593;SDS011;6362;50.208;9.182;2022-11-20T00:06:37;39.35;;;18.08;;
12593;SDS011;6362;50.208;9.182;2022-11-20T00:09:03;36.70;;;17.02;;
12593;SDS011;6362;50.208;9.182;2022-11-20T00:11:30;35.65;;;17.08;;
12593;SDS011;6362;50.208;9.182;2022-11-20T00:13:57;38.38;;;17.55;;
12593;SDS011;6362;50.208;9.182;2022-11-20T00:16:25;42.13;;;18.20;;
12593;SDS011;6362;50.208;9.182;2022-11-20T00:18:52;40.50;;;17.52;;
12593;SDS011;6362;50.208;9.182;2022-11-20T00:21:19;37.85;;;16.88;;
12593;SDS011;6362;50.208;9.182;2022-11-20T00:23:49;41.45;;;17.85;;
12593;SDS011;6362;50.208;9.182;2022-11-20T00:26:16;41.65;;;17.30;;
12593;SDS011;6362;50.208;9.182;2022-11-20T00:28:44;38.35;;;16.73;;
12593;SDS011;6362;50.208;9.182;2022-11-20T00:31:18;36.78;;;17.42;;
12593;SDS011;6362;50.208;9.182;2022-11-20T00:33:44;40.53;;;17.50;;
12593;SDS011;6362;50.208;9.182;2022-11-20T00:36:13;38.88;;;17.50;;
12593;SDS011;6362;50.208;9.182;2022-11-20T00:38:43;35.22;;;16.42;;
12593;SDS011;6362;50.208;9.182;2022-11-20T00:41:10;41.08;;;17.23;;
12593;SDS011;6362;50.208;9.182;2022-11-20T00:43:37;39.45;;;17.42;;
12593;SDS011;6362;50.208;9.182;2022-11-20T00:46:04;40.75;;;18.10;;
12593;SDS011;6362;50.208;9.182;2022-11-20T00:48:40;40.78;;;17.65;;
12593;SDS011;6362;50.208;9.182;2022-11-20T00:51:05;37.50;;;17.48;;
12593;SDS011;6362;50.208;9.182;2022-11-20T00:53:31;41.33;;;16.75;;
12593;SDS011;6362;50.208;9.182;2022-11-20T00:56:01;39.75;;;17.20;;
12593;SDS011;6362;50.208;9.182;2022-11-20T00:58:30;36.10;;;15.63;;
12593;SDS011;6362;50.208;9.182;2022-11-20T01:01:01;40.55;;;17.60;;
12593;SDS011;6362;50.208;9.182;2022-11-20T01:03:30;41.38;;;18.27;;
12593;SDS011;6362;50.208;9.182;2022-11-20T01:05:59;42.58;;;18.38;;
12593;SDS011;6362;50.208;9.182;2022-11-20T01:08:28;39.03;;;16.60;;
12593;SDS011;6362;50.208;9.182;2022-11-20T01:10:58;42.40;;;18.67;;
12593;SDS011;6362;50.208;9.182;2022-11-20T01:13:28;46.88;;;19.92;;
12593;SDS011;6362;50.208;9.182;2022-11-20T01:18:29;40.38;;;18.17;;
12593;SDS011;6362;50.208;9.182;2022-11-20T01:20:55;39.13;;;18.63;;
12593;SDS011;6362;50.208;9.182;2022-11-20T01:23:20;37.65;;;16.48;;
12593;SDS011;6362;50.208;9.182;2022-11-20T01:25:46;40.13;;;18.00;;
12593;SDS011;6362;50.208;9.182;2022-11-20T01:28:11;37.55;;;17.40;;
12593;SDS011;6362;50.208;9.182;2022-11-20T01:30:36;39.75;;;17.30;;
12593;SDS011;6362;50.208;9.182;2022-11-20T01:33:02;35.28;;;16.10;;
12593;SDS011;6362;50.208;9.182;2022-11-20T01:35:27;40.25;;;16.95;;
12593;SDS011;6362;50.208;9.182;2022-11-20T01:37:52;38.53;;;16.98;;
12593;SDS011;6362;50.208;9.182;2022-11-20T01:40:18;37.63;;;17.55;;
12593;SDS011;6362;50.208;9.182;2022-11-20T01:42:47;46.45;;;19.63;;
12593;SDS011;6362;50.208;9.182;2022-11-20T01:48:23;40.47;;;18.75;;
12593;SDS011;6362;50.208;9.182;2022-11-20T01:50:53;39.42;;;17.20;;
12593;SDS011;6362;50.208;9.182;2022-11-20T01:53:21;40.08;;;17.90;;
12593;SDS011;6362;50.208;9.182;2022-11-20T01:55:54;39.88;;;18.27;;
12593;SDS011;6362;50.208;9.182;2022-11-20T01:58:22;40.25;;;18.40;;
12593;SDS011;6362;50.208;9.182;2022-11-20T02:00:56;43.53;;;19.30;;
12593;SDS011;6362;50.208;9.182;2022-11-20T02:03:22;37.63;;;17.45;;
12593;SDS011;6362;50.208;9.182;2022-11-20T02:08:28;38.13;;;17.88;;
12593;SDS011;6362;50.208;9.182;2022-11-20T02:10:55;35.05;;;16.13;;
12593;SDS011;6362;50.208;9.182;2022-11-20T02:13:21;37.88;;;17.65;;
12593;SDS011;6362;50.208;9.182;2022-11-20T02:16:06;39.10;;;16.75;;
12593;SDS011;6362;50.208;9.182;2022-11-20T02:18:36;42.05;;;18.55;;
12593;SDS011;6362;50.208;9.182;2022-11-20T02:21:05;40.85;;;18.05;;
12593;SDS011;6362;50.208;9.182;2022-11-20T02:26:21;37.78;;;17.23;;
12593;SDS011;6362;50.208;9.182;2022-11-20T02:28:48;33.80;;;15.95;;
12593;SDS011;6362;50.208;9.182;2022-11-20T02:31:15;41.35;;;19.45;;
12593;SDS011;6362;50.208;9.182;2022-11-20T02:33:41;40.55;;;17.63;;
12593;SDS011;6362;50.208;9.182;2022-11-20T02:36:07;40.60;;;17.73;;
12593;SDS011;6362;50.208;9.182;2022-11-20T02:38:36;39.78;;;18.98;;
12593;SDS011;6362;50.208;9.182;2022-11-20T02:41:02;37.58;;;17.23;;
12593;SDS011;6362;50.208;9.182;2022-11-20T02:43:27;40.58;;;17.48;;
12593;SDS011;6362;50.208;9.182;2022-11-20T02:45:53;39.67;;;17.67;;
12593;SDS011;6362;50.208;9.182;2022-11-20T02:48:18;40.92;;;18.35;;
12593;SDS011;6362;50.208;9.182;2022-11-20T02:50:44;37.45;;;17.73;;
12593;SDS011;6362;50.208;9.182;2022-11-20T02:53:09;38.90;;;17.77;;
12593;SDS011;6362;50.208;9.182;2022-11-20T02:55:35;37.53;;;17.38;;
12593;SDS011;6362;50.208;9.182;2022-11-20T02:58:01;39.13;;;17.83;;
12593;SDS011;6362;50.208;9.182;2022-11-20T03:00:26;40.22;;;18.45;;
12593;SDS011;6362;50.208;9.182;2022-11-20T03:02:52;38.72;;;17.30;;
12593;SDS011;6362;50.208;9.182;2022-11-20T03:05:17;41.15;;;18.77;;
12593;SDS011;6362;50.208;9.182;2022-11-20T03:07:43;40.30;;;17.50;;
12593;SDS011;6362;50.208;9.182;2022-11-20T03:10:09;41.97;;;18.40;;
12593;SDS011;6362;50.208;9.182;2022-11-20T03:12:34;41.90;;;18.88;;
12593;SDS011;6362;50.208;9.182;2022-11-20T03:15:00;39.58;;;17.85;;
12593;SDS011;6362;50.208;9.182;2022-11-20T03:17:25;41.33;;;18.00;;
12593;SDS011;6362;50.208;9.182;2022-11-20T03:19:50;38.55;;;16.50;;
12593;SDS011;6362;50.208;9.182;2022-11-20T03:22:16;39.35;;;17.05;;
12593;SDS011;6362;50.208;9.182;2022-11-20T03:24:41;41.42;;;17.25;;
12593;SDS011;6362;50.208;9.182;2022-11-20T03:27:06;41.15;;;17.92;;
12593;SDS011;6362;50.208;9.182;2022-11-20T03:29:32;40.45;;;17.98;;
12593;SDS011;6362;50.208;9.182;2022-11-20T03:31:57;40.70;;;17.75;;
12593;SDS011;6362;50.208;9.182;2022-11-20T03:34:23;39.42;;;17.15;;
12593;SDS011;6362;50.208;9.182;2022-11-20T03:36:48;43.20;;;18.92;;
12593;SDS011;6362;50.208;9.182;2022-11-20T03:39:14;42.85;;;19.20;;
12593;SDS011;6362;50.208;9.182;2022-11-20T03:41:40;43.83;;;19.52;;
12593;SDS011;6362;50.208;9.182;2022-11-20T03:44:07;42.80;;;18.73;;
12593;SDS011;6362;50.208;9.182;2022-11-20T03:46:35;38.00;;;17.15;;
12593;SDS011;6362;50.208;9.182;2022-11-20T03:49:00;39.78;;;17.58;;
12593;SDS011;6362;50.208;9.182;2022-11-20T03:51:30;42.17;;;18.88;;
12593;SDS011;6362;50.208;9.182;2022-11-20T03:53:58;39.28;;;17.88;;
12593;SDS011;6362;50.208;9.182;2022-11-20T03:56:25;39.67;;;17.65;;
12593;SDS011;6362;50.208;9.182;2022-11-20T03:58:53;40.75;;;17.65;;
12593;SDS011;6362;50.208;9.182;2022-11-20T04:01:20;45.38;;;19.00;;
12593;SDS011;6362;50.208;9.182;2022-11-20T04:03:48;41.30;;;17.48;;
12593;SDS011;6362;50.208;9.182;2022-11-20T04:06:17;36.13;;;16.17;;
12593;SDS011;6362;50.208;9.182;2022-11-20T04:08:45;37.55;;;16.38;;
12593;SDS011;6362;50.208;9.182;2022-11-20T04:11:15;45.40;;;19.00;;
12593;SDS011;6362;50.208;9.182;2022-11-20T04:13:46;43.13;;;19.65;;
12593;SDS011;6362;50.208;9.182;2022-11-20T04:16:13;41.17;;;18.33;;
12593;SDS011;6362;50.208;9.182;2022-11-20T04:18:39;41.30;;;17.88;;
12593;SDS011;6362;50.208;9.182;2022-11-20T04:21:05;44.15;;;18.90;;
12593;SDS011;6362;50.208;9.182;2022-11-20T04:23:31;38.83;;;17.67;;
12593;SDS011;6362;50.208;9.182;2022-11-20T04:26:04;41.30;;;18.23;;
12593;SDS011;6362;50.208;9.182;2022-11-20T04:28:31;38.47;;;16.63;;
12593;SDS011;6362;50.208;9.182;2022-11-20T04:31:07;41.40;;;18.27;;
12593;SDS011;6362;50.208;9.182;2022-11-20T04:33:35;38.28;;;17.33;;
12593;SDS011;6362;50.208;9.182;2022-11-20T04:36:05;39.10;;;18.52;;
12593;SDS011;6362;50.208;9.182;2022-11-20T04:38:33;46.70;;;19.73;;
12593;SDS011;6362;50.208;9.182;2022-11-20T04:40:59;46.15;;;20.05;;
12593;SDS011;6362;50.208;9.182;2022-11-20T04:43:26;46.72;;;20.40;;
12593;SDS011;6362;50.208;9.182;2022-11-20T04:45:55;42.20;;;18.65;;
12593;SDS011;6362;50.208;9.182;2022-11-20T04:48:22;38.15;;;17.45;;
12593;SDS011;6362;50.208;9.182;2022-11-20T04:50:49;41.80;;;18.30;;
12593;SDS011;6362;50.208;9.182;2022-11-20T04:53:15;43.28;;;18.20;;
12593;SDS011;6362;50.208;9.182;2022-11-20T04:55:41;43.15;;;18.05;;
12593;SDS011;6362;50.208;9.182;2022-11-20T04:58:07;44.08;;;18.55;;
12593;SDS011;6362;50.208;9.182;2022-11-20T05:00:33;43.60;;;17.90;;
12593;SDS011;6362;50.208;9.182;2022-11-20T05:02:58;37.45;;;16.88;;
12593;SDS011;6362;50.208;9.182;2022-11-20T05:05:24;40.28;;;18.40;;
12593;SDS011;6362;50.208;9.182;2022-11-20T05:07:49;38.00;;;16.58;;
12593;SDS011;6362;50.208;9.182;2022-11-20T05:10:15;40.17;;;17.42;;
12593;SDS011;6362;50.208;9.182;2022-11-20T05:12:40;44.78;;;18.70;;
12593;SDS011;6362;50.208;9.182;2022-11-20T05:15:06;42.05;;;18.75;;
12593;SDS011;6362;50.208;9.182;2022-11-20T05:17:32;46.75;;;19.63;;
12593;SDS011;6362;50.208;9.182;2022-11-20T05:19:57;39.67;;;17.90;;
12593;SDS011;6362;50.208;9.182;2022-11-20T05:22:23;42.50;;;18.58;;
12593;SDS011;6362;50.208;9.182;2022-11-20T05:24:48;44.00;;;18.35;;
12593;SDS011;6362;50.208;9.182;2022-11-20T05:27:13;42.90;;;17.58;;
12593;SDS011;6362;50.208;9.182;2022-11-20T05:29:39;40.65;;;18.98;;
12593;SDS011;6362;50.208;9.182;2022-11-20T05:32:04;42.40;;;18.48;;
12593;SDS011;6362;50.208;9.182;2022-11-20T05:34:32;38.78;;;17.92;;
12593;SDS011;6362;50.208;9.182;2022-11-20T05:36:58;40.88;;;18.73;;
12593;SDS011;6362;50.208;9.182;2022-11-20T05:39:23;43.97;;;18.55;;
12593;SDS011;6362;50.208;9.182;2022-11-20T05:41:48;44.53;;;19.98;;
12593;SDS011;6362;50.208;9.182;2022-11-20T05:44:34;42.08;;;18.27;;
12593;SDS011;6362;50.208;9.182;2022-11-20T05:46:59;38.90;;;17.55;;
12593;SDS011;6362;50.208;9.182;2022-11-20T05:49:25;45.08;;;19.48;;
12593;SDS011;6362;50.208;9.182;2022-11-20T05:51:50;43.20;;;18.73;;
12593;SDS011;6362;50.208;9.182;2022-11-20T05:54:15;40.80;;;18.42;;
12593;SDS011;6362;50.208;9.182;2022-11-20T05:56:41;44.63;;;19.35;;
12593;SDS011;6362;50.208;9.182;2022-11-20T05:59:06;46.92;;;18.70;;
12593;SDS011;6362;50.208;9.182;2022-11-20T06:01:32;41.25;;;18.00;;
12593;SDS011;6362;50.208;9.182;2022-11-20T06:03:57;42.25;;;18.38;;
12593;SDS011;6362;50.208;9.182;2022-11-20T06:06:23;40.13;;;17.67;;
12593;SDS011;6362;50.208;9.182;2022-11-20T06:08:50;41.08;;;16.85;;
12593;SDS011;6362;50.208;9.182;2022-11-20T06:11:15;40.72;;;17.63;;
12593;SDS011;6362;50.208;9.182;2022-11-20T06:13:42;41.97;;;18.00;;
12593;SDS011;6362;50.208;9.182;2022-11-20T06:16:08;38.65;;;17.27;;
12593;SDS011;6362;50.208;9.182;2022-11-20T06:18:35;40.58;;;17.42;;
12593;SDS011;6362;50.208;9.182;2022-11-20T06:21:01;41.15;;;17.90;;
12593;SDS011;6362;50.208;9.182;2022-11-20T06:23:28;39.88;;;17.98;;
12593;SDS011;6362;50.208;9.182;2022-11-20T06:25:54;42.85;;;18.48;;
12593;SDS011;6362;50.208;9.182;2022-11-20T06:28:19;44.80;;;20.02;;
12593;SDS011;6362;50.208;9.182;2022-11-20T06:30:45;44.22;;;19.27;;
12593;SDS011;6362;50.208;9.182;2022-11-20T06:33:11;48.22;;;19.52;;
12593;SDS011;6362;50.208;9.182;2022-11-20T06:35:36;42.20;;;18.60;;
12593;SDS011;6362;50.208;9.182;2022-11-20T06:38:01;43.20;;;18.70;;
12593;SDS011;6362;50.208;9.182;2022-11-20T06:40:27;39.22;;;17.27;;
12593;SDS011;6362;50.208;9.182;2022-11-20T06:42:53;40.92;;;18.17;;
12593;SDS011;6362;50.208;9.182;2022-11-20T06:45:19;39.85;;;17.45;;
12593;SDS011;6362;50.208;9.182;2022-11-20T06:47:45;37.90;;;16.95;;
12593;SDS011;6362;50.208;9.182;2022-11-20T06:50:10;43.50;;;19.50;;
12593;SDS011;6362;50.208;9.182;2022-11-20T06:52:36;36.60;;;17.05;;
12593;SDS011;6362;50.208;9.182;2022-11-20T06:55:01;38.03;;;17.42;;
12593;SDS011;6362;50.208;9.182;2022-11-20T06:57:27;44.45;;;19.33;;
12593;SDS011;6362;50.208;9.182;2022-11-20T06:59:52;47.80;;;18.55;;
12593;SDS011;6362;50.208;9.182;2022-11-20T07:02:18;45.65;;;20.15;;
12593;SDS011;6362;50.208;9.182;2022-11-20T07:04:43;45.78;;;19.88;;
12593;SDS011;6362;50.208;9.182;2022-11-20T07:07:09;42.97;;;18.02;;
12593;SDS011;6362;50.208;9.182;2022-11-20T07:09:34;43.75;;;19.42;;
12593;SDS011;6362;50.208;9.182;2022-11-20T07:11:59;47.50;;;20.38;;
12593;SDS011;6362;50.208;9.182;2022-11-20T07:14:25;41.25;;;18.55;;
12593;SDS011;6362;50.208;9.182;2022-11-20T07:16:51;45.72;;;20.35;;
12593;SDS011;6362;50.208;9.182;2022-11-20T07:19:16;40.40;;;18.80;;
12593;SDS011;6362;50.208;9.182;2022-11-20T07:21:42;48.35;;;19.85;;
12593;SDS011;6362;50.208;9.182;2022-11-20T07:24:07;43.20;;;19.35;;
12593;SDS011;6362;50.208;9.182;2022-11-20T07:26:32;53.92;;;24.70;;
12593;SDS011;6362;50.208;9.182;2022-11-20T07:28:58;49.75;;;22.88;;
12593;SDS011;6362;50.208;9.182;2022-11-20T07:31:23;51.20;;;22.77;;
12593;SDS011;6362;50.208;9.182;2022-11-20T07:33:49;51.25;;;21.98;;
12593;SDS011;6362;50.208;9.182;2022-11-20T07:36:14;49.75;;;21.17;;
12593;SDS011;6362;50.208;9.182;2022-11-20T07:38:40;48.72;;;19.60;;
12593;SDS011;6362;50.208;9.182;2022-11-20T07:41:05;52.30;;;21.85;;
12593;SDS011;6362;50.208;9.182;2022-11-20T07:43:30;51.25;;;20.23;;
12593;SDS011;6362;50.208;9.182;2022-11-20T07:45:56;49.10;;;21.45;;
12593;SDS011;6362;50.208;9.182;2022-11-20T07:48:23;51.28;;;21.42;;
12593;SDS011;6362;50.208;9.182;2022-11-20T07:50:49;48.50;;;20.98;;
12593;SDS011;6362;50.208;9.182;2022-11-20T07:53:14;46.20;;;20.73;;
12593;SDS011;6362;50.208;9.182;2022-11-20T07:55:45;51.65;;;20.45;;
12593;SDS011;6362;50.208;9.182;2022-11-20T07:58:11;47.97;;;21.23;;
12593;SDS011;6362;50.208;9.182;2022-11-20T08:00:36;49.80;;;20.98;;
12593;SDS011;6362;50.208;9.182;2022-11-20T08:03:03;52.58;;;20.60;;
12593;SDS011;6362;50.208;9.182;2022-11-20T08:05:29;53.97;;;20.83;;
12593;SDS011;6362;50.208;9.182;2022-11-20T08:07:54;55.00;;;20.75;;
12593;SDS011;6362;50.208;9.182;2022-11-20T08:10:20;59.72;;;21.33;;
12593;SDS011;6362;50.208;9.182;2022-11-20T08:12:46;63.42;;;22.40;;
12593;SDS011;6362;50.208;9.182;2022-11-20T08:15:34;68.03;;;22.65;;
12593;SDS011;6362;50.208;9.182;2022-11-20T08:18:04;67.45;;;23.80;;
12593;SDS011;6362;50.208;9.182;2022-11-20T08:20:30;54.45;;;21.65;;
12593;SDS011;6362;50.208;9.182;2022-11-20T08:22:59;51.08;;;21.35;;
12593;SDS011;6362;50.208;9.182;2022-11-20T08:25:26;56.63;;;21.38;;
12593;SDS011;6362;50.208;9.182;2022-11-20T08:27:53;50.78;;;21.20;;
12593;SDS011;6362;50.208;9.182;2022-11-20T08:30:18;48.75;;;20.10;;
12593;SDS011;6362;50.208;9.182;2022-11-20T08:32:43;48.97;;;20.98;;
12593;SDS011;6362;50.208;9.182;2022-11-20T08:35:09;50.92;;;19.25;;
12593;SDS011;6362;50.208;9.182;2022-11-20T08:37:34;46.83;;;19.67;;
12593;SDS011;6362;50.208;9.182;2022-11-20T08:40:00;46.63;;;19.38;;
12593;SDS011;6362;50.208;9.182;2022-11-20T08:42:25;41.67;;;18.08;;
12593;SDS011;6362;50.208;9.182;2022-11-20T08:44:50;43.13;;;17.90;;
12593;SDS011;6362;50.208;9.182;2022-11-20T08:47:16;40.08;;;16.65;;
12593;SDS011;6362;50.208;9.182;2022-11-20T08:49:41;40.17;;;17.08;;
12593;SDS011;6362;50.208;9.182;2022-11-20T08:52:06;49.50;;;19.88;;
12593;SDS011;6362;50.208;9.182;2022-11-20T08:54:32;49.30;;;18.05;;
12593;SDS011;6362;50.208;9.182;2022-11-20T08:56:57;45.80;;;18.13;;
12593;SDS011;6362;50.208;9.182;2022-11-20T08:59:23;46.30;;;19.55;;
12593;SDS011;6362;50.208;9.182;2022-11-20T09:01:48;46.25;;;19.42;;
12593;SDS011;6362;50.208;9.182;2022-11-20T09:04:13;52.67;;;20.48;;
12593;SDS011;6362;50.208;9.182;2022-11-20T09:06:39;44.25;;;18.00;;
12593;SDS011;6362;50.208;9.182;2022-11-20T09:09:05;52.33;;;20.40;;
12593;SDS011;6362;50.208;9.182;2022-11-20T09:11:30;54.20;;;19.70;;
12593;SDS011;6362;50.208;9.182;2022-11-20T09:13:56;47.38;;;20.80;;
12593;SDS011;6362;50.208;9.182;2022-11-20T09:16:22;51.17;;;20.95;;
12593;SDS011;6362;50.208;9.182;2022-11-20T09:18:49;48.30;;;20.02;;
12593;SDS011;6362;50.208;9.182;2022-11-20T09:21:15;58.38;;;21.02;;
12593;SDS011;6362;50.208;9.182;2022-11-20T09:23:41;53.50;;;20.45;;
12593;SDS011;6362;50.208;9.182;2022-11-20T09:26:08;51.08;;;19.92;;
12593;SDS011;6362;50.208;9.182;2022-11-20T09:28:35;50.78;;;20.05;;
12593;SDS011;6362;50.208;9.182;2022-11-20T09:31:04;51.00;;;20.90;;
12593;SDS011;6362;50.208;9.182;2022-11-20T09:33:31;47.92;;;19.60;;
12593;SDS011;6362;50.208;9.182;2022-11-20T09:35:56;51.47;;;21.10;;
12593;SDS011;6362;50.208;9.182;2022-11-20T09:38:22;55.60;;;20.90;;
12593;SDS011;6362;50.208;9.182;2022-11-20T09:41:06;59.90;;;22.55;;
12593;SDS011;6362;50.208;9.182;2022-11-20T09:46:13;52.58;;;19.98;;
12593;SDS011;6362;50.208;9.182;2022-11-20T09:56:37;45.22;;;17.80;;
12593;SDS011;6362;50.208;9.182;2022-11-20T09:59:07;45.67;;;18.95;;
12593;SDS011;6362;50.208;9.182;2022-11-20T10:01:45;44.13;;;18.65;;
12593;SDS011;6362;50.208;9.182;2022-11-20T10:04:13;37.20;;;15.35;;
12593;SDS011;6362;50.208;9.182;2022-11-20T10:09:34;29.42;;;13.57;;
12593;SDS011;6362;50.208;9.182;2022-11-20T10:26:05;34.25;;;16.10;;
12593;SDS011;6362;50.208;9.182;2022-11-20T10:31:37;30.35;;;13.30;;
12593;SDS011;6362;50.208;9.182;2022-11-20T10:37:00;32.28;;;14.15;;
12593;SDS011;6362;50.208;9.182;2022-11-20T10:42:16;30.30;;;14.50;;
12593;SDS011;6362;50.208;9.182;2022-11-20T10:45:02;33.90;;;16.55;;
12593;SDS011;6362;50.208;9.182;2022-11-20T10:47:40;33.35;;;16.40;;
12593;SDS011;6362;50.208;9.182;2022-11-20T10:50:09;33.13;;;16.33;;
12593;SDS011;6362;50.208;9.182;2022-11-20T10:55:40;35.00;;;16.40;;
12593;SDS011;6362;50.208;9.182;2022-11-20T11:03:52;38.15;;;17.50;;
12593;SDS011;6362;50.208;9.182;2022-11-20T11:06:32;35.30;;;16.65;;
12593;SDS011;6362;50.208;9.182;2022-11-20T11:09:03;31.85;;;14.68;;
12593;SDS011;6362;50.208;9.182;2022-11-20T11:11:34;30.73;;;15.93;;
12593;SDS011;6362;50.208;9.182;2022-11-20T11:14:06;30.42;;;14.75;;
12593;SDS011;6362;50.208;9.182;2022-11-20T11:16:40;36.28;;;16.20;;
12593;SDS011;6362;50.208;9.182;2022-11-20T11:19:16;33.15;;;15.55;;
12593;SDS011;6362;50.208;9.182;2022-11-20T11:21:48;33.78;;;15.63;;
12593;SDS011;6362;50.208;9.182;2022-11-20T11:24:26;38.45;;;16.90;;
12593;SDS011;6362;50.208;9.182;2022-11-20T11:26:58;40.72;;;17.52;;
12593;SDS011;6362;50.208;9.182;2022-11-20T11:29:24;33.35;;;16.33;;
12593;SDS011;6362;50.208;9.182;2022-11-20T11:32:07;36.03;;;16.08;;
12593;SDS011;6362;50.208;9.182;2022-11-20T11:34:36;38.88;;;15.50;;
12593;SDS011;6362;50.208;9.182;2022-11-20T11:37:02;33.85;;;15.15;;
12593;SDS011;6362;50.208;9.182;2022-11-20T11:39:29;38.80;;;17.67;;
12593;SDS011;6362;50.208;9.182;2022-11-20T11:41:57;43.60;;;19.38;;
12593;SDS011;6362;50.208;9.182;2022-11-20T11:44:33;36.30;;;16.83;;
12593;SDS011;6362;50.208;9.182;2022-11-20T11:47:25;34.85;;;16.48;;
12593;SDS011;6362;50.208;9.182;2022-11-20T11:53:18;35.35;;;16.95;;
12593;SDS011;6362;50.208;9.182;2022-11-20T11:55:49;32.38;;;15.40;;
12593;SDS011;6362;50.208;9.182;2022-11-20T12:06:38;35.55;;;15.77;;
12593;SDS011;6362;50.208;9.182;2022-11-20T12:09:10;33.33;;;14.98;;
12593;SDS011;6362;50.208;9.182;2022-11-20T12:14:34;34.40;;;16.55;;
12593;SDS011;6362;50.208;9.182;2022-11-20T12:17:10;35.92;;;16.67;;
12593;SDS011;6362;50.208;9.182;2022-11-20T12:19:37;39.83;;;18.95;;
12593;SDS011;6362;50.208;9.182;2022-11-20T12:25:07;37.65;;;17.75;;
12593;SDS011;6362;50.208;9.182;2022-11-20T12:30:24;39.20;;;17.38;;
12593;SDS011;6362;50.208;9.182;2022-11-20T12:36:06;39.95;;;18.50;;
12593;SDS011;6362;50.208;9.182;2022-11-20T12:43:19;37.67;;;17.50;;
12593;SDS011;6362;50.208;9.182;2022-11-20T12:49:00;38.10;;;17.58;;
12593;SDS011;6362;50.208;9.182;2022-11-20T12:57:11;37.35;;;17.55;;
12593;SDS011;6362;50.208;9.182;2022-11-20T13:05:37;42.78;;;20.40;;
12593;SDS011;6362;50.208;9.182;2022-11-20T13:08:24;41.20;;;18.38;;
12593;SDS011;6362;50.208;9.182;2022-11-20T13:16:10;39.60;;;18.33;;
12593;SDS011;6362;50.208;9.182;2022-11-20T13:18:52;37.58;;;18.15;;
12593;SDS011;6362;50.208;9.182;2022-11-20T13:21:19;38.42;;;18.70;;
12593;SDS011;6362;50.208;9.182;2022-11-20T13:23:46;37.25;;;17.45;;
12593;SDS011;6362;50.208;9.182;2022-11-20T13:26:16;38.28;;;18.70;;
12593;SDS011;6362;50.208;9.182;2022-11-20T13:28:45;44.10;;;19.87;;
12593;SDS011;6362;50.208;9.182;2022-11-20T13:31:27;38.67;;;17.45;;
12593;SDS011;6362;50.208;9.182;2022-11-20T13:33:55;37.17;;;17.50;;
12593;SDS011;6362;50.208;9.182;2022-11-20T13:36:24;38.53;;;17.80;;
12593;SDS011;6362;50.208;9.182;2022-11-20T13:38:52;43.90;;;19.75;;
12593;SDS011;6362;50.208;9.182;2022-11-20T13:41:33;42.03;;;18.60;;
12593;SDS011;6362;50.208;9.182;2022-11-20T13:46:45;41.15;;;19.00;;
12593;SDS011;6362;50.208;9.182;2022-11-20T13:55:23;38.05;;;17.98;;
12593;SDS011;6362;50.208;9.182;2022-11-20T14:01:16;40.90;;;18.85;;
12593;SDS011;6362;50.208;9.182;2022-11-20T14:03:45;40.00;;;18.95;;
12593;SDS011;6362;50.208;9.182;2022-11-20T14:06:34;39.13;;;19.17;;
12593;SDS011;6362;50.208;9.182;2022-11-20T14:08:59;40.33;;;20.75;;
12593;SDS011;6362;50.208;9.182;2022-11-20T14:11:27;36.47;;;17.83;;
12593;SDS011;6362;50.208;9.182;2022-11-20T14:13:55;38.15;;;18.27;;
12593;SDS011;6362;50.208;9.182;2022-11-20T14:16:21;41.92;;;19.42;;
12593;SDS011;6362;50.208;9.182;2022-11-20T14:18:47;40.03;;;18.75;;
12593;SDS011;6362;50.208;9.182;2022-11-20T14:21:21;40.47;;;19.42;;
12593;SDS011;6362;50.208;9.182;2022-11-20T14:23:48;40.90;;;18.73;;
12593;SDS011;6362;50.208;9.182;2022-11-20T14:26:14;39.78;;;19.30;;
12593;SDS011;6362;50.208;9.182;2022-11-20T14:28:47;39.90;;;16.92;;
12593;SDS011;6362;50.208;9.182;2022-11-20T14:31:17;35.95;;;16.38;;
12593;SDS011;6362;50.208;9.182;2022-11-20T14:33:47;34.58;;;16.95;;
12593;SDS011;6362;50.208;9.182;2022-11-20T14:36:17;35.55;;;15.52;;
12593;SDS011;6362;50.208;9.182;2022-11-20T14:38:44;35.35;;;16.48;;
12593;SDS011;6362;50.208;9.182;2022-11-20T14:41:16;36.20;;;17.40;;
12593;SDS011;6362;50.208;9.182;2022-11-20T14:43:57;36.42;;;17.08;;
12593;SDS011;6362;50.208;9.182;2022-11-20T14:46:23;39.07;;;17.10;;
12593;SDS011;6362;50.208;9.182;2022-11-20T14:48:50;41.35;;;19.10;;
12593;SDS011;6362;50.208;9.182;2022-11-20T14:51:32;44.03;;;18.83;;
12593;SDS011;6362;50.208;9.182;2022-11-20T14:56:34;42.95;;;19.35;;
12593;SDS011;6362;50.208;9.182;2022-11-20T14:59:00;40.00;;;18.55;;
12593;SDS011;6362;50.208;9.182;2022-11-20T15:01:29;44.75;;;19.48;;
12593;SDS011;6362;50.208;9.182;2022-11-20T15:04:14;43.45;;;19.80;;
12593;SDS011;6362;50.208;9.182;2022-11-20T15:06:48;43.65;;;18.40;;
12593;SDS011;6362;50.208;9.182;2022-11-20T15:09:18;43.95;;;19.13;;
12593;SDS011;6362;50.208;9.182;2022-11-20T15:14:21;43.80;;;20.52;;
12593;SDS011;6362;50.208;9.182;2022-11-20T15:16:48;43.85;;;18.80;;
12593;SDS011;6362;50.208;9.182;2022-11-20T15:19:17;54.97;;;23.85;;
12593;SDS011;6362;50.208;9.182;2022-11-20T15:21:45;60.63;;;24.55;;
12593;SDS011;6362;50.208;9.182;2022-11-20T15:24:11;75.10;;;28.10;;
12593;SDS011;6362;50.208;9.182;2022-11-20T15:26:36;70.85;;;26.73;;
12593;SDS011;6362;50.208;9.182;2022-11-20T15:29:05;82.40;;;29.55;;
12593;SDS011;6362;50.208;9.182;2022-11-20T15:31:38;73.57;;;29.05;;
12593;SDS011;6362;50.208;9.182;2022-11-20T15:34:13;75.00;;;30.33;;
12593;SDS011;6362;50.208;9.182;2022-11-20T15:36:40;62.90;;;25.30;;
12593;SDS011;6362;50.208;9.182;2022-11-20T15:39:06;66.18;;;26.90;;
12593;SDS011;6362;50.208;9.182;2022-11-20T15:41:35;78.32;;;30.45;;
12593;SDS011;6362;50.208;9.182;2022-11-20T15:44:01;82.95;;;32.58;;
12593;SDS011;6362;50.208;9.182;2022-11-20T15:46:27;107.97;;;40.40;;
12593;SDS011;6362;50.208;9.182;2022-11-20T15:48:58;76.05;;;31.88;;
12593;SDS011;6362;50.208;9.182;2022-11-20T15:51:31;53.03;;;25.15;;
12593;SDS011;6362;50.208;9.182;2022-11-20T15:53:58;33.05;;;16.83;;
12593;SDS011;6362;50.208;9.182;2022-11-20T15:56:24;46.00;;;24.05;;
12593;SDS011;6362;50.208;9.182;2022-11-20T15:58:50;41.90;;;22.42;;
12593;SDS011;6362;50.208;9.182;2022-11-20T16:01:16;41.53;;;19.55;;
12593;SDS011;6362;50.208;9.182;2022-11-20T16:03:43;41.05;;;19.27;;
12593;SDS011;6362;50.208;9.182;2022-11-20T16:06:09;38.22;;;17.40;;
12593;SDS011;6362;50.208;9.182;2022-11-20T16:08:35;37.47;;;17.77;;
12593;SDS011;6362;50.208;9.182;2022-11-20T16:11:00;40.90;;;18.63;;
12593;SDS011;6362;50.208;9.182;2022-11-20T16:13:26;40.88;;;19.85;;
12593;SDS011;6362;50.208;9.182;2022-11-20T16:16:13;37.60;;;19.55;;
12593;SDS011;6362;50.208;9.182;2022-11-20T16:18:45;42.80;;;20.23;;
12593;SDS011;6362;50.208;9.182;2022-11-20T16:21:11;39.63;;;19.85;;
12593;SDS011;6362;50.208;9.182;2022-11-20T16:23:38;40.33;;;20.85;;
12593;SDS011;6362;50.208;9.182;2022-11-20T16:26:14;38.88;;;19.15;;
12593;SDS011;6362;50.208;9.182;2022-11-20T16:28:42;33.42;;;17.08;;
12593;SDS011;6362;50.208;9.182;2022-11-20T16:31:11;36.80;;;17.85;;
12593;SDS011;6362;50.208;9.182;2022-11-20T16:33:38;44.63;;;21.63;;
12593;SDS011;6362;50.208;9.182;2022-11-20T16:36:07;43.25;;;20.27;;
12593;SDS011;6362;50.208;9.182;2022-11-20T16:38:37;46.80;;;19.73;;
12593;SDS011;6362;50.208;9.182;2022-11-20T16:41:03;37.15;;;17.20;;